sensor_id;sensor_type;location;lat;lon;timestamp;P1;durP1;ratioP1;P2;durP2;ratioP2
17596;SDS011;8917;50.942;6.946;2022-08-19T00:00:35;9.20;;;8.23;;
17596;SDS011;8917;50.942;6.946;2022-08-19T00:03:03;11.85;;;9.85;;
17596;SDS011;8917;50.942;6.946;2022-08-19T00:05:30;8.65;;;7.85;;
17596;SDS011;8917;50.942;6.946;2022-08-19T00:07:57;8.32;;;7.32;;
17596;SDS011;8917;50.942;6.946;2022-08-19T00:10:25;9.35;;;8.38;;
17596;SDS011;8917;50.942;6.946;2022-08-19T00:12:53;8.57;;;7.75;;
17596;SDS011;8917;50.942;6.946;2022-08-19T00:15:21;9.07;;;8.00;;
17596;SDS011;8917;50.942;6.946;2022-08-19T00:17:49;9.32;;;7.88;;
17596;SDS011;8917;50.942;6.946;2022-08-19T00:20:17;8.45;;;7.57;;
17596;SDS011;8917;50.942;6.946;2022-08-19T00:22:45;8.65;;;7.90;;
17596;SDS011;8917;50.942;6.946;2022-08-19T00:25:13;9.57;;;8.25;;
17596;SDS011;8917;50.942;6.946;2022-08-19T00:27:40;10.23;;;7.95;;
17596;SDS011;8917;50.942;6.946;2022-08-19T00:30:09;8.68;;;7.75;;
17596;SDS011;8917;50.942;6.946;2022-08-19T00:32:37;10.40;;;9.18;;
17596;SDS011;8917;50.942;6.946;2022-08-19T00:35:04;10.80;;;8.48;;
17596;SDS011;8917;50.942;6.946;2022-08-19T00:37:31;9.98;;;8.77;;
17596;SDS011;8917;50.942;6.946;2022-08-19T00:40:00;9.43;;;8.40;;
17596;SDS011;8917;50.942;6.946;2022-08-19T00:42:27;9.95;;;8.60;;
17596;SDS011;8917;50.942;6.946;2022-08-19T00:44:55;9.30;;;8.30;;
17596;SDS011;8917;50.942;6.946;2022-08-19T00:47:23;10.02;;;9.02;;
17596;SDS011;8917;50.942;6.946;2022-08-19T00:49:51;9.98;;;8.98;;
17596;SDS011;8917;50.942;6.946;2022-08-19T00:52:20;10.10;;;9.00;;
17596;SDS011;8917;50.942;6.946;2022-08-19T00:54:48;10.20;;;9.15;;
17596;SDS011;8917;50.942;6.946;2022-08-19T00:57:17;10.50;;;9.32;;
17596;SDS011;8917;50.942;6.946;2022-08-19T00:59:46;9.75;;;8.85;;
17596;SDS011;8917;50.942;6.946;2022-08-19T01:02:17;10.65;;;9.55;;
17596;SDS011;8917;50.942;6.946;2022-08-19T01:04:45;11.07;;;9.27;;
17596;SDS011;8917;50.942;6.946;2022-08-19T01:07:13;10.95;;;9.85;;
17596;SDS011;8917;50.942;6.946;2022-08-19T01:09:40;11.02;;;10.02;;
17596;SDS011;8917;50.942;6.946;2022-08-19T01:12:07;11.98;;;10.82;;
17596;SDS011;8917;50.942;6.946;2022-08-19T01:14:35;11.15;;;10.15;;
17596;SDS011;8917;50.942;6.946;2022-08-19T01:17:03;11.18;;;10.18;;
17596;SDS011;8917;50.942;6.946;2022-08-19T01:19:32;11.90;;;9.43;;
17596;SDS011;8917;50.942;6.946;2022-08-19T01:22:03;12.32;;;10.90;;
17596;SDS011;8917;50.942;6.946;2022-08-19T01:24:32;10.10;;;9.13;;
17596;SDS011;8917;50.942;6.946;2022-08-19T01:26:59;11.18;;;9.85;;
17596;SDS011;8917;50.942;6.946;2022-08-19T01:29:26;10.82;;;9.73;;
17596;SDS011;8917;50.942;6.946;2022-08-19T01:31:54;14.20;;;12.52;;
17596;SDS011;8917;50.942;6.946;2022-08-19T01:34:21;17.17;;;13.13;;
17596;SDS011;8917;50.942;6.946;2022-08-19T01:36:49;15.55;;;13.48;;
17596;SDS011;8917;50.942;6.946;2022-08-19T01:39:18;15.68;;;13.20;;
17596;SDS011;8917;50.942;6.946;2022-08-19T01:41:47;14.25;;;12.05;;
17596;SDS011;8917;50.942;6.946;2022-08-19T01:44:15;13.45;;;12.07;;
17596;SDS011;8917;50.942;6.946;2022-08-19T01:46:46;13.05;;;11.70;;
17596;SDS011;8917;50.942;6.946;2022-08-19T01:49:14;12.95;;;11.10;;
17596;SDS011;8917;50.942;6.946;2022-08-19T01:51:41;14.23;;;10.60;;
17596;SDS011;8917;50.942;6.946;2022-08-19T01:54:09;10.90;;;9.70;;
17596;SDS011;8917;50.942;6.946;2022-08-19T01:56:36;10.32;;;9.35;;
17596;SDS011;8917;50.942;6.946;2022-08-19T01:59:08;11.52;;;10.43;;
17596;SDS011;8917;50.942;6.946;2022-08-19T02:01:35;13.93;;;10.07;;
17596;SDS011;8917;50.942;6.946;2022-08-19T02:04:02;11.90;;;10.27;;
17596;SDS011;8917;50.942;6.946;2022-08-19T02:06:30;12.20;;;10.68;;
17596;SDS011;8917;50.942;6.946;2022-08-19T02:08:58;11.32;;;10.23;;
17596;SDS011;8917;50.942;6.946;2022-08-19T02:11:27;11.15;;;9.73;;
17596;SDS011;8917;50.942;6.946;2022-08-19T02:13:56;11.52;;;10.43;;
17596;SDS011;8917;50.942;6.946;2022-08-19T02:16:25;12.52;;;10.43;;
17596;SDS011;8917;50.942;6.946;2022-08-19T02:18:52;10.88;;;9.48;;
17596;SDS011;8917;50.942;6.946;2022-08-19T02:21:21;10.63;;;9.55;;
17596;SDS011;8917;50.942;6.946;2022-08-19T02:23:49;12.30;;;10.23;;
17596;SDS011;8917;50.942;6.946;2022-08-19T02:26:20;11.98;;;9.93;;
17596;SDS011;8917;50.942;6.946;2022-08-19T02:28:47;10.88;;;9.50;;
17596;SDS011;8917;50.942;6.946;2022-08-19T02:31:15;11.65;;;10.45;;
17596;SDS011;8917;50.942;6.946;2022-08-19T02:33:44;11.73;;;10.40;;
17596;SDS011;8917;50.942;6.946;2022-08-19T02:36:12;10.93;;;9.52;;
17596;SDS011;8917;50.942;6.946;2022-08-19T02:38:39;11.77;;;9.55;;
17596;SDS011;8917;50.942;6.946;2022-08-19T02:41:07;11.65;;;9.77;;
17596;SDS011;8917;50.942;6.946;2022-08-19T02:43:34;11.23;;;9.18;;
17596;SDS011;8917;50.942;6.946;2022-08-19T02:46:10;10.75;;;9.63;;
17596;SDS011;8917;50.942;6.946;2022-08-19T02:48:38;13.75;;;10.05;;
17596;SDS011;8917;50.942;6.946;2022-08-19T02:51:06;11.73;;;9.88;;
17596;SDS011;8917;50.942;6.946;2022-08-19T02:53:34;12.23;;;9.55;;
17596;SDS011;8917;50.942;6.946;2022-08-19T02:56:05;11.65;;;9.57;;
17596;SDS011;8917;50.942;6.946;2022-08-19T02:58:33;13.20;;;10.10;;
17596;SDS011;8917;50.942;6.946;2022-08-19T03:01:00;16.42;;;10.65;;
17596;SDS011;8917;50.942;6.946;2022-08-19T03:03:27;14.32;;;10.40;;
17596;SDS011;8917;50.942;6.946;2022-08-19T03:06:05;11.80;;;9.60;;
17596;SDS011;8917;50.942;6.946;2022-08-19T03:08:35;12.30;;;11.10;;
17596;SDS011;8917;50.942;6.946;2022-08-19T03:11:02;14.57;;;13.02;;
17596;SDS011;8917;50.942;6.946;2022-08-19T03:13:30;13.32;;;12.02;;
17596;SDS011;8917;50.942;6.946;2022-08-19T03:15:57;14.43;;;11.65;;
17596;SDS011;8917;50.942;6.946;2022-08-19T03:18:25;12.90;;;11.27;;
17596;SDS011;8917;50.942;6.946;2022-08-19T03:20:52;12.70;;;10.70;;
17596;SDS011;8917;50.942;6.946;2022-08-19T03:23:20;14.85;;;11.15;;
17596;SDS011;8917;50.942;6.946;2022-08-19T03:25:50;13.65;;;11.20;;
17596;SDS011;8917;50.942;6.946;2022-08-19T03:28:18;11.77;;;10.57;;
17596;SDS011;8917;50.942;6.946;2022-08-19T03:30:55;12.52;;;11.15;;
17596;SDS011;8917;50.942;6.946;2022-08-19T03:33:24;12.85;;;11.50;;
17596;SDS011;8917;50.942;6.946;2022-08-19T03:36:08;12.18;;;10.90;;
17596;SDS011;8917;50.942;6.946;2022-08-19T03:38:35;14.07;;;11.80;;
17596;SDS011;8917;50.942;6.946;2022-08-19T03:41:06;13.27;;;11.98;;
17596;SDS011;8917;50.942;6.946;2022-08-19T03:43:34;11.82;;;10.73;;
17596;SDS011;8917;50.942;6.946;2022-08-19T03:46:02;12.75;;;11.35;;
17596;SDS011;8917;50.942;6.946;2022-08-19T03:48:30;12.38;;;10.90;;
17596;SDS011;8917;50.942;6.946;2022-08-19T03:50:58;15.88;;;12.10;;
17596;SDS011;8917;50.942;6.946;2022-08-19T03:53:25;15.02;;;12.70;;
17596;SDS011;8917;50.942;6.946;2022-08-19T03:55:52;14.35;;;12.90;;
17596;SDS011;8917;50.942;6.946;2022-08-19T03:58:21;15.85;;;14.23;;
17596;SDS011;8917;50.942;6.946;2022-08-19T04:00:49;16.42;;;14.60;;
17596;SDS011;8917;50.942;6.946;2022-08-19T04:03:16;16.85;;;15.15;;
17596;SDS011;8917;50.942;6.946;2022-08-19T04:05:45;17.45;;;15.65;;
17596;SDS011;8917;50.942;6.946;2022-08-19T04:08:13;21.38;;;17.02;;
17596;SDS011;8917;50.942;6.946;2022-08-19T04:10:45;21.88;;;19.58;;
17596;SDS011;8917;50.942;6.946;2022-08-19T04:13:13;22.23;;;19.92;;
17596;SDS011;8917;50.942;6.946;2022-08-19T04:15:42;23.23;;;20.08;;
17596;SDS011;8917;50.942;6.946;2022-08-19T04:18:11;24.25;;;20.27;;
17596;SDS011;8917;50.942;6.946;2022-08-19T04:20:39;24.38;;;21.60;;
17596;SDS011;8917;50.942;6.946;2022-08-19T04:23:07;27.02;;;23.13;;
17596;SDS011;8917;50.942;6.946;2022-08-19T04:25:35;24.38;;;22.02;;
17596;SDS011;8917;50.942;6.946;2022-08-19T04:28:03;27.17;;;24.23;;
17596;SDS011;8917;50.942;6.946;2022-08-19T04:30:30;27.13;;;24.27;;
17596;SDS011;8917;50.942;6.946;2022-08-19T04:32:58;26.83;;;23.85;;
17596;SDS011;8917;50.942;6.946;2022-08-19T04:35:26;27.88;;;24.73;;
17596;SDS011;8917;50.942;6.946;2022-08-19T04:37:53;26.77;;;23.67;;
17596;SDS011;8917;50.942;6.946;2022-08-19T04:40:20;29.25;;;25.00;;
17596;SDS011;8917;50.942;6.946;2022-08-19T04:43:05;27.20;;;24.58;;
17596;SDS011;8917;50.942;6.946;2022-08-19T04:45:33;29.23;;;25.52;;
17596;SDS011;8917;50.942;6.946;2022-08-19T04:48:04;27.25;;;24.05;;
17596;SDS011;8917;50.942;6.946;2022-08-19T04:50:31;28.33;;;25.42;;
17596;SDS011;8917;50.942;6.946;2022-08-19T04:52:58;27.65;;;24.50;;
17596;SDS011;8917;50.942;6.946;2022-08-19T04:55:26;29.38;;;26.23;;
17596;SDS011;8917;50.942;6.946;2022-08-19T04:57:53;27.83;;;24.98;;
17596;SDS011;8917;50.942;6.946;2022-08-19T05:00:20;27.05;;;24.15;;
17596;SDS011;8917;50.942;6.946;2022-08-19T05:02:47;29.35;;;26.25;;
17596;SDS011;8917;50.942;6.946;2022-08-19T05:05:16;27.40;;;24.38;;
17596;SDS011;8917;50.942;6.946;2022-08-19T05:07:44;29.42;;;24.58;;
17596;SDS011;8917;50.942;6.946;2022-08-19T05:10:12;26.75;;;24.00;;
17596;SDS011;8917;50.942;6.946;2022-08-19T05:12:39;29.58;;;24.55;;
17596;SDS011;8917;50.942;6.946;2022-08-19T05:15:07;26.63;;;23.58;;
17596;SDS011;8917;50.942;6.946;2022-08-19T05:17:34;27.58;;;23.98;;
17596;SDS011;8917;50.942;6.946;2022-08-19T05:20:02;26.58;;;23.70;;
17596;SDS011;8917;50.942;6.946;2022-08-19T05:22:48;23.55;;;21.05;;
17596;SDS011;8917;50.942;6.946;2022-08-19T05:25:17;24.88;;;22.23;;
17596;SDS011;8917;50.942;6.946;2022-08-19T05:27:45;26.55;;;23.38;;
17596;SDS011;8917;50.942;6.946;2022-08-19T05:30:13;22.83;;;20.48;;
17596;SDS011;8917;50.942;6.946;2022-08-19T05:32:41;24.40;;;21.15;;
17596;SDS011;8917;50.942;6.946;2022-08-19T05:35:08;23.55;;;21.15;;
17596;SDS011;8917;50.942;6.946;2022-08-19T05:37:36;24.35;;;21.50;;
17596;SDS011;8917;50.942;6.946;2022-08-19T05:40:07;25.15;;;21.27;;
17596;SDS011;8917;50.942;6.946;2022-08-19T05:42:34;24.13;;;21.55;;
17596;SDS011;8917;50.942;6.946;2022-08-19T05:45:02;26.05;;;23.42;;
17596;SDS011;8917;50.942;6.946;2022-08-19T05:47:30;26.77;;;22.52;;
17596;SDS011;8917;50.942;6.946;2022-08-19T05:49:57;28.42;;;23.15;;
17596;SDS011;8917;50.942;6.946;2022-08-19T05:52:24;25.00;;;22.23;;
17596;SDS011;8917;50.942;6.946;2022-08-19T05:54:52;25.60;;;22.80;;
17596;SDS011;8917;50.942;6.946;2022-08-19T05:57:22;26.95;;;22.88;;
17596;SDS011;8917;50.942;6.946;2022-08-19T05:59:49;26.85;;;23.60;;
17596;SDS011;8917;50.942;6.946;2022-08-19T06:02:16;26.85;;;22.42;;
17596;SDS011;8917;50.942;6.946;2022-08-19T06:04:44;28.83;;;24.00;;
17596;SDS011;8917;50.942;6.946;2022-08-19T06:07:11;28.17;;;22.85;;
17596;SDS011;8917;50.942;6.946;2022-08-19T06:09:38;28.83;;;24.27;;
17596;SDS011;8917;50.942;6.946;2022-08-19T06:12:06;27.02;;;22.80;;
17596;SDS011;8917;50.942;6.946;2022-08-19T06:14:35;26.85;;;23.20;;
17596;SDS011;8917;50.942;6.946;2022-08-19T06:17:02;24.67;;;22.02;;
17596;SDS011;8917;50.942;6.946;2022-08-19T06:19:30;27.35;;;22.75;;
17596;SDS011;8917;50.942;6.946;2022-08-19T06:21:58;26.42;;;22.48;;
17596;SDS011;8917;50.942;6.946;2022-08-19T06:24:26;26.75;;;23.48;;
17596;SDS011;8917;50.942;6.946;2022-08-19T06:26:54;27.10;;;23.05;;
17596;SDS011;8917;50.942;6.946;2022-08-19T06:29:22;27.25;;;22.63;;
17596;SDS011;8917;50.942;6.946;2022-08-19T06:31:52;29.73;;;22.83;;
17596;SDS011;8917;50.942;6.946;2022-08-19T06:34:21;31.25;;;22.35;;
17596;SDS011;8917;50.942;6.946;2022-08-19T06:36:49;29.88;;;25.75;;
17596;SDS011;8917;50.942;6.946;2022-08-19T06:39:17;31.48;;;26.23;;
17596;SDS011;8917;50.942;6.946;2022-08-19T06:41:46;31.08;;;25.15;;
17596;SDS011;8917;50.942;6.946;2022-08-19T06:44:14;31.48;;;25.10;;
17596;SDS011;8917;50.942;6.946;2022-08-19T06:46:41;29.67;;;26.05;;
17596;SDS011;8917;50.942;6.946;2022-08-19T06:49:10;31.17;;;26.90;;
17596;SDS011;8917;50.942;6.946;2022-08-19T06:51:39;29.83;;;25.80;;
17596;SDS011;8917;50.942;6.946;2022-08-19T06:54:06;31.95;;;27.10;;
17596;SDS011;8917;50.942;6.946;2022-08-19T06:56:34;31.73;;;25.70;;
17596;SDS011;8917;50.942;6.946;2022-08-19T06:59:02;32.47;;;27.05;;
17596;SDS011;8917;50.942;6.946;2022-08-19T07:01:29;30.48;;;25.17;;
17596;SDS011;8917;50.942;6.946;2022-08-19T07:03:57;30.02;;;25.33;;
17596;SDS011;8917;50.942;6.946;2022-08-19T07:06:27;27.83;;;24.45;;
17596;SDS011;8917;50.942;6.946;2022-08-19T07:08:56;28.88;;;24.17;;
17596;SDS011;8917;50.942;6.946;2022-08-19T07:11:24;31.25;;;24.98;;
17596;SDS011;8917;50.942;6.946;2022-08-19T07:13:51;32.03;;;25.88;;
17596;SDS011;8917;50.942;6.946;2022-08-19T07:16:19;36.90;;;29.23;;
17596;SDS011;8917;50.942;6.946;2022-08-19T07:18:47;30.55;;;23.92;;
17596;SDS011;8917;50.942;6.946;2022-08-19T07:21:15;31.73;;;24.10;;
17596;SDS011;8917;50.942;6.946;2022-08-19T07:23:44;30.98;;;24.80;;
17596;SDS011;8917;50.942;6.946;2022-08-19T07:26:13;30.00;;;23.40;;
17596;SDS011;8917;50.942;6.946;2022-08-19T07:28:41;33.42;;;23.15;;
17596;SDS011;8917;50.942;6.946;2022-08-19T07:31:09;29.38;;;23.95;;
17596;SDS011;8917;50.942;6.946;2022-08-19T07:33:37;30.70;;;22.17;;
17596;SDS011;8917;50.942;6.946;2022-08-19T07:36:05;27.40;;;24.33;;
17596;SDS011;8917;50.942;6.946;2022-08-19T07:38:32;30.60;;;24.10;;
17596;SDS011;8917;50.942;6.946;2022-08-19T07:41:01;29.13;;;22.92;;
17596;SDS011;8917;50.942;6.946;2022-08-19T07:43:28;27.85;;;23.40;;
17596;SDS011;8917;50.942;6.946;2022-08-19T07:45:56;27.48;;;22.52;;
17596;SDS011;8917;50.942;6.946;2022-08-19T07:48:23;29.60;;;24.63;;
17596;SDS011;8917;50.942;6.946;2022-08-19T07:50:53;33.50;;;25.23;;
17596;SDS011;8917;50.942;6.946;2022-08-19T07:53:22;31.23;;;26.33;;
17596;SDS011;8917;50.942;6.946;2022-08-19T07:55:49;32.10;;;27.02;;
17596;SDS011;8917;50.942;6.946;2022-08-19T07:58:19;30.42;;;24.45;;
17596;SDS011;8917;50.942;6.946;2022-08-19T08:00:47;31.85;;;26.90;;
17596;SDS011;8917;50.942;6.946;2022-08-19T08:03:15;36.97;;;26.42;;
17596;SDS011;8917;50.942;6.946;2022-08-19T08:05:43;33.72;;;27.38;;
17596;SDS011;8917;50.942;6.946;2022-08-19T08:08:28;40.55;;;32.03;;
17596;SDS011;8917;50.942;6.946;2022-08-19T08:11:13;38.85;;;31.50;;
17596;SDS011;8917;50.942;6.946;2022-08-19T08:13:42;35.17;;;28.77;;
17596;SDS011;8917;50.942;6.946;2022-08-19T08:16:10;42.95;;;31.92;;
17596;SDS011;8917;50.942;6.946;2022-08-19T08:18:38;39.63;;;31.10;;
17596;SDS011;8917;50.942;6.946;2022-08-19T08:21:07;40.28;;;31.23;;
17596;SDS011;8917;50.942;6.946;2022-08-19T08:23:35;39.88;;;31.92;;
17596;SDS011;8917;50.942;6.946;2022-08-19T08:26:02;39.47;;;31.33;;
17596;SDS011;8917;50.942;6.946;2022-08-19T08:28:29;38.28;;;31.38;;
17596;SDS011;8917;50.942;6.946;2022-08-19T08:30:58;41.30;;;33.25;;
17596;SDS011;8917;50.942;6.946;2022-08-19T08:33:26;43.67;;;31.52;;
17596;SDS011;8917;50.942;6.946;2022-08-19T08:35:55;44.75;;;33.85;;
17596;SDS011;8917;50.942;6.946;2022-08-19T08:38:22;50.60;;;34.50;;
17596;SDS011;8917;50.942;6.946;2022-08-19T08:40:51;43.30;;;34.50;;
17596;SDS011;8917;50.942;6.946;2022-08-19T08:43:23;46.90;;;35.45;;
17596;SDS011;8917;50.942;6.946;2022-08-19T08:45:55;43.92;;;35.33;;
17596;SDS011;8917;50.942;6.946;2022-08-19T08:48:27;50.97;;;38.17;;
17596;SDS011;8917;50.942;6.946;2022-08-19T08:50:58;47.72;;;36.22;;
17596;SDS011;8917;50.942;6.946;2022-08-19T08:53:26;50.63;;;37.40;;
17596;SDS011;8917;50.942;6.946;2022-08-19T08:55:54;54.15;;;36.83;;
17596;SDS011;8917;50.942;6.946;2022-08-19T08:58:24;47.95;;;35.42;;
17596;SDS011;8917;50.942;6.946;2022-08-19T09:00:54;46.85;;;36.47;;
17596;SDS011;8917;50.942;6.946;2022-08-19T09:03:23;79.00;;;53.00;;
17596;SDS011;8917;50.942;6.946;2022-08-19T09:05:55;50.70;;;36.10;;
17596;SDS011;8917;50.942;6.946;2022-08-19T09:08:26;47.35;;;35.78;;
17596;SDS011;8917;50.942;6.946;2022-08-19T09:10:55;46.80;;;32.42;;
17596;SDS011;8917;50.942;6.946;2022-08-19T09:13:25;43.13;;;32.80;;
17596;SDS011;8917;50.942;6.946;2022-08-19T09:15:54;43.28;;;31.42;;
17596;SDS011;8917;50.942;6.946;2022-08-19T09:18:24;40.15;;;33.40;;
17596;SDS011;8917;50.942;6.946;2022-08-19T09:20:52;46.45;;;32.63;;
17596;SDS011;8917;50.942;6.946;2022-08-19T09:23:20;41.67;;;31.27;;
17596;SDS011;8917;50.942;6.946;2022-08-19T09:25:49;38.90;;;31.30;;
17596;SDS011;8917;50.942;6.946;2022-08-19T09:28:16;37.05;;;30.13;;
17596;SDS011;8917;50.942;6.946;2022-08-19T09:30:43;36.42;;;28.00;;
17596;SDS011;8917;50.942;6.946;2022-08-19T09:33:11;37.38;;;28.27;;
17596;SDS011;8917;50.942;6.946;2022-08-19T09:35:38;35.22;;;28.40;;
17596;SDS011;8917;50.942;6.946;2022-08-19T09:38:05;31.92;;;26.23;;
17596;SDS011;8917;50.942;6.946;2022-08-19T09:40:34;32.15;;;26.23;;
17596;SDS011;8917;50.942;6.946;2022-08-19T09:43:01;31.00;;;25.40;;
17596;SDS011;8917;50.942;6.946;2022-08-19T09:45:30;31.52;;;26.05;;
17596;SDS011;8917;50.942;6.946;2022-08-19T09:47:57;32.95;;;25.40;;
17596;SDS011;8917;50.942;6.946;2022-08-19T09:50:24;32.40;;;26.60;;
17596;SDS011;8917;50.942;6.946;2022-08-19T09:52:51;32.33;;;26.20;;
17596;SDS011;8917;50.942;6.946;2022-08-19T09:55:19;34.35;;;27.90;;
17596;SDS011;8917;50.942;6.946;2022-08-19T09:57:48;27.83;;;22.92;;
17596;SDS011;8917;50.942;6.946;2022-08-19T10:00:16;22.50;;;18.98;;
17596;SDS011;8917;50.942;6.946;2022-08-19T10:02:43;21.35;;;18.65;;
17596;SDS011;8917;50.942;6.946;2022-08-19T10:05:11;23.48;;;18.05;;
17596;SDS011;8917;50.942;6.946;2022-08-19T10:07:55;19.85;;;16.02;;
17596;SDS011;8917;50.942;6.946;2022-08-19T10:10:26;17.33;;;14.43;;
17596;SDS011;8917;50.942;6.946;2022-08-19T10:12:55;22.23;;;19.50;;
17596;SDS011;8917;50.942;6.946;2022-08-19T10:15:22;19.55;;;15.35;;
17596;SDS011;8917;50.942;6.946;2022-08-19T10:17:50;19.30;;;15.15;;
17596;SDS011;8917;50.942;6.946;2022-08-19T10:20:17;20.60;;;18.13;;
17596;SDS011;8917;50.942;6.946;2022-08-19T10:22:44;18.35;;;16.13;;
17596;SDS011;8917;50.942;6.946;2022-08-19T10:25:12;20.15;;;15.55;;
17596;SDS011;8917;50.942;6.946;2022-08-19T10:27:42;25.38;;;20.30;;
17596;SDS011;8917;50.942;6.946;2022-08-19T10:30:11;17.65;;;13.93;;
17596;SDS011;8917;50.942;6.946;2022-08-19T10:32:39;24.08;;;19.08;;
17596;SDS011;8917;50.942;6.946;2022-08-19T10:35:07;20.17;;;17.42;;
17596;SDS011;8917;50.942;6.946;2022-08-19T10:37:34;21.77;;;18.98;;
17596;SDS011;8917;50.942;6.946;2022-08-19T10:40:03;20.63;;;18.52;;
17596;SDS011;8917;50.942;6.946;2022-08-19T10:42:32;21.17;;;17.40;;
17596;SDS011;8917;50.942;6.946;2022-08-19T10:44:59;19.45;;;17.42;;
17596;SDS011;8917;50.942;6.946;2022-08-19T10:47:28;19.63;;;17.60;;
17596;SDS011;8917;50.942;6.946;2022-08-19T10:49:56;20.05;;;16.98;;
17596;SDS011;8917;50.942;6.946;2022-08-19T10:52:41;22.02;;;19.73;;
17596;SDS011;8917;50.942;6.946;2022-08-19T10:55:10;20.33;;;18.25;;
17596;SDS011;8917;50.942;6.946;2022-08-19T10:57:55;19.13;;;17.08;;
17596;SDS011;8917;50.942;6.946;2022-08-19T11:00:23;24.30;;;21.77;;
17596;SDS011;8917;50.942;6.946;2022-08-19T11:02:52;21.63;;;18.98;;
17596;SDS011;8917;50.942;6.946;2022-08-19T11:05:19;22.70;;;20.02;;
17596;SDS011;8917;50.942;6.946;2022-08-19T11:07:47;23.23;;;19.30;;
17596;SDS011;8917;50.942;6.946;2022-08-19T11:10:16;23.67;;;20.88;;
17596;SDS011;8917;50.942;6.946;2022-08-19T11:12:44;22.65;;;19.73;;
17596;SDS011;8917;50.942;6.946;2022-08-19T11:15:13;22.05;;;19.73;;
17596;SDS011;8917;50.942;6.946;2022-08-19T11:17:40;21.75;;;19.45;;
17596;SDS011;8917;50.942;6.946;2022-08-19T11:20:10;20.15;;;17.67;;
17596;SDS011;8917;50.942;6.946;2022-08-19T11:22:37;20.00;;;15.90;;
17596;SDS011;8917;50.942;6.946;2022-08-19T11:25:05;15.38;;;13.80;;
17596;SDS011;8917;50.942;6.946;2022-08-19T11:27:32;15.20;;;12.38;;
17596;SDS011;8917;50.942;6.946;2022-08-19T11:30:00;16.88;;;15.05;;
17596;SDS011;8917;50.942;6.946;2022-08-19T11:32:28;17.70;;;15.90;;
17596;SDS011;8917;50.942;6.946;2022-08-19T11:34:56;15.02;;;13.50;;
17596;SDS011;8917;50.942;6.946;2022-08-19T11:37:24;14.00;;;12.32;;
17596;SDS011;8917;50.942;6.946;2022-08-19T11:39:52;16.65;;;14.90;;
17596;SDS011;8917;50.942;6.946;2022-08-19T11:42:19;17.02;;;15.27;;
17596;SDS011;8917;50.942;6.946;2022-08-19T11:45:04;21.38;;;14.65;;
17596;SDS011;8917;50.942;6.946;2022-08-19T11:47:32;13.52;;;12.23;;
17596;SDS011;8917;50.942;6.946;2022-08-19T11:49:59;13.90;;;11.93;;
17596;SDS011;8917;50.942;6.946;2022-08-19T11:52:28;13.55;;;12.25;;
17596;SDS011;8917;50.942;6.946;2022-08-19T11:54:55;15.20;;;12.25;;
17596;SDS011;8917;50.942;6.946;2022-08-19T11:57:22;13.15;;;11.73;;
17596;SDS011;8917;50.942;6.946;2022-08-19T11:59:49;12.18;;;10.40;;
17596;SDS011;8917;50.942;6.946;2022-08-19T12:02:17;12.63;;;11.32;;
17596;SDS011;8917;50.942;6.946;2022-08-19T12:04:45;15.20;;;11.05;;
17596;SDS011;8917;50.942;6.946;2022-08-19T12:07:12;12.32;;;10.98;;
17596;SDS011;8917;50.942;6.946;2022-08-19T12:09:41;12.95;;;11.43;;
17596;SDS011;8917;50.942;6.946;2022-08-19T12:12:08;12.85;;;11.55;;
17596;SDS011;8917;50.942;6.946;2022-08-19T12:14:35;12.55;;;10.30;;
17596;SDS011;8917;50.942;6.946;2022-08-19T12:17:03;11.10;;;10.00;;
17596;SDS011;8917;50.942;6.946;2022-08-19T12:19:32;12.15;;;10.15;;
17596;SDS011;8917;50.942;6.946;2022-08-19T12:22:00;12.07;;;10.88;;
17596;SDS011;8917;50.942;6.946;2022-08-19T12:24:30;12.10;;;10.43;;
17596;SDS011;8917;50.942;6.946;2022-08-19T12:26:58;13.65;;;10.10;;
17596;SDS011;8917;50.942;6.946;2022-08-19T12:29:27;10.95;;;9.85;;
17596;SDS011;8917;50.942;6.946;2022-08-19T12:31:55;12.25;;;10.55;;
17596;SDS011;8917;50.942;6.946;2022-08-19T12:34:27;11.68;;;10.48;;
17596;SDS011;8917;50.942;6.946;2022-08-19T12:36:56;9.55;;;8.38;;
17596;SDS011;8917;50.942;6.946;2022-08-19T12:39:23;9.85;;;8.85;;
17596;SDS011;8917;50.942;6.946;2022-08-19T12:41:50;11.25;;;10.10;;
17596;SDS011;8917;50.942;6.946;2022-08-19T12:44:19;14.23;;;10.57;;
17596;SDS011;8917;50.942;6.946;2022-08-19T12:46:46;11.82;;;9.98;;
17596;SDS011;8917;50.942;6.946;2022-08-19T12:49:14;14.55;;;10.25;;
17596;SDS011;8917;50.942;6.946;2022-08-19T12:51:42;13.48;;;10.70;;
17596;SDS011;8917;50.942;6.946;2022-08-19T12:54:09;11.07;;;9.95;;
17596;SDS011;8917;50.942;6.946;2022-08-19T12:56:37;12.35;;;10.35;;
17596;SDS011;8917;50.942;6.946;2022-08-19T12:59:04;12.70;;;9.93;;
17596;SDS011;8917;50.942;6.946;2022-08-19T13:01:34;12.02;;;9.07;;
17596;SDS011;8917;50.942;6.946;2022-08-19T13:04:02;12.63;;;10.32;;
17596;SDS011;8917;50.942;6.946;2022-08-19T13:06:29;12.38;;;10.73;;
17596;SDS011;8917;50.942;6.946;2022-08-19T13:08:56;10.70;;;9.57;;
17596;SDS011;8917;50.942;6.946;2022-08-19T13:11:23;11.65;;;10.23;;
17596;SDS011;8917;50.942;6.946;2022-08-19T13:13:51;11.90;;;9.50;;
17596;SDS011;8917;50.942;6.946;2022-08-19T13:16:20;9.75;;;8.75;;
17596;SDS011;8917;50.942;6.946;2022-08-19T13:18:49;10.18;;;8.35;;
17596;SDS011;8917;50.942;6.946;2022-08-19T13:21:17;10.23;;;8.57;;
17596;SDS011;8917;50.942;6.946;2022-08-19T13:23:46;10.07;;;8.95;;
17596;SDS011;8917;50.942;6.946;2022-08-19T13:26:13;9.55;;;7.45;;
17596;SDS011;8917;50.942;6.946;2022-08-19T13:28:41;11.07;;;9.43;;
17596;SDS011;8917;50.942;6.946;2022-08-19T13:31:27;8.77;;;7.57;;
17596;SDS011;8917;50.942;6.946;2022-08-19T13:34:14;8.35;;;7.40;;
17596;SDS011;8917;50.942;6.946;2022-08-19T13:36:42;9.05;;;7.70;;
17596;SDS011;8917;50.942;6.946;2022-08-19T13:39:09;11.77;;;7.82;;
17596;SDS011;8917;50.942;6.946;2022-08-19T13:41:37;10.25;;;8.07;;
17596;SDS011;8917;50.942;6.946;2022-08-19T13:44:05;9.10;;;7.30;;
17596;SDS011;8917;50.942;6.946;2022-08-19T13:46:32;9.38;;;7.50;;
17596;SDS011;8917;50.942;6.946;2022-08-19T13:48:59;11.80;;;7.85;;
17596;SDS011;8917;50.942;6.946;2022-08-19T13:51:28;8.60;;;6.32;;
17596;SDS011;8917;50.942;6.946;2022-08-19T13:53:55;9.43;;;6.60;;
17596;SDS011;8917;50.942;6.946;2022-08-19T13:56:22;10.82;;;5.97;;
17596;SDS011;8917;50.942;6.946;2022-08-19T13:58:50;9.50;;;6.70;;
17596;SDS011;8917;50.942;6.946;2022-08-19T14:01:18;9.63;;;6.35;;
17596;SDS011;8917;50.942;6.946;2022-08-19T14:03:46;8.57;;;7.15;;
17596;SDS011;8917;50.942;6.946;2022-08-19T14:06:13;9.45;;;7.65;;
17596;SDS011;8917;50.942;6.946;2022-08-19T14:08:43;8.60;;;7.80;;
17596;SDS011;8917;50.942;6.946;2022-08-19T14:11:10;9.48;;;6.65;;
17596;SDS011;8917;50.942;6.946;2022-08-19T14:13:38;6.93;;;6.22;;
17596;SDS011;8917;50.942;6.946;2022-08-19T14:16:06;8.15;;;6.90;;
17596;SDS011;8917;50.942;6.946;2022-08-19T14:18:34;8.80;;;6.78;;
17596;SDS011;8917;50.942;6.946;2022-08-19T14:21:01;8.82;;;6.80;;
17596;SDS011;8917;50.942;6.946;2022-08-19T14:23:29;8.10;;;7.07;;
17596;SDS011;8917;50.942;6.946;2022-08-19T14:26:04;9.75;;;5.97;;
17596;SDS011;8917;50.942;6.946;2022-08-19T14:28:32;9.07;;;6.88;;
17596;SDS011;8917;50.942;6.946;2022-08-19T14:30:59;10.20;;;6.75;;
17596;SDS011;8917;50.942;6.946;2022-08-19T14:33:26;11.18;;;7.75;;
17596;SDS011;8917;50.942;6.946;2022-08-19T14:35:53;10.43;;;6.53;;
17596;SDS011;8917;50.942;6.946;2022-08-19T14:38:21;9.05;;;6.72;;
17596;SDS011;8917;50.942;6.946;2022-08-19T14:40:48;7.25;;;6.55;;
17596;SDS011;8917;50.942;6.946;2022-08-19T14:43:18;8.43;;;6.28;;
17596;SDS011;8917;50.942;6.946;2022-08-19T14:45:47;7.35;;;5.28;;
17596;SDS011;8917;50.942;6.946;2022-08-19T14:48:14;7.55;;;6.22;;